Time;durP1;ratioP1;P1;durP2;ratioP2;P2;SDS_P1;SDS_P2;PMS_P1;PMS_P2;Temp;Humidity;BMP_temperature;BMP_pressure;BME280_temperature;BME280_humidity;BME280_pressure;Samples;Min_cycle;Max_cycle;Signal;HPM_P1;HPM_P2
2021/06/24 00:01:01;;;;;;;5.18;3.75;;;;;;;;;;5022918;28;20514;-79
2021/06/24 00:03:31;;;;;;;5.28;4.28;;;;;;;;;;4998477;28;20029;-79
2021/06/24 00:05:57;;;;;;;5.28;3.78;;;;;;;;;;5000459;28;20502;-79
2021/06/24 00:08:23;;;;;;;4.55;3.58;;;;;;;;;;5000113;28;20029;-79
2021/06/24 00:10:49;;;;;;;4.97;3.88;;;;;;;;;;5015989;28;20117;-79
2021/06/24 00:13:14;;;;;;;4.78;3.53;;;;;;;;;;4999908;28;20029;-79
2021/06/24 00:15:40;;;;;;;6.32;3.90;;;;;;;;;;4999522;28;20033;-79
2021/06/24 00:18:06;;;;;;;5.05;3.60;;;;;;;;;;4999727;28;20029;-79
2021/06/24 00:20:33;;;;;;;5.50;3.72;;;;;;;;;;5016354;28;20059;-79
2021/06/24 00:22:58;;;;;;;6.45;3.80;;;;;;;;;;4999959;28;20502;-79
2021/06/24 00:25:24;;;;;;;5.95;3.58;;;;;;;;;;4998995;28;20052;-79
2021/06/24 00:27:49;;;;;;;5.60;3.38;;;;;;;;;;4999289;28;20395;-79
2021/06/24 00:30:15;;;;;;;4.35;3.30;;;;;;;;;;4993288;28;20083;-78
2021/06/24 00:32:41;;;;;;;4.95;3.72;;;;;;;;;;5030988;28;20121;-79
2021/06/24 00:35:07;;;;;;;5.38;3.65;;;;;;;;;;5015658;28;20399;-78
2021/06/24 00:37:33;;;;;;;4.50;3.55;;;;;;;;;;5015854;28;20025;-79
2021/06/24 00:39:58;;;;;;;4.57;3.33;;;;;;;;;;4999121;28;20063;-79
2021/06/24 00:42:26;;;;;;;3.92;3.30;;;;;;;;;;5015842;28;20040;-80
2021/06/24 00:44:52;;;;;;;6.80;3.70;;;;;;;;;;5015849;28;20041;-78
2021/06/24 00:47:17;;;;;;;5.75;3.60;;;;;;;;;;5031765;28;20040;-79
2021/06/24 00:49:43;;;;;;;5.47;3.42;;;;;;;;;;5012240;28;20037;-79
2021/06/24 00:52:08;;;;;;;7.03;3.85;;;;;;;;;;5006219;28;20037;-79
2021/06/24 00:54:34;;;;;;;5.13;3.22;;;;;;;;;;5014762;28;20033;-78
2021/06/24 00:56:59;;;;;;;5.32;3.60;;;;;;;;;;4998383;28;20033;-79
2021/06/24 00:59:25;;;;;;;5.18;2.92;;;;;;;;;;5015320;28;20052;-79
2021/06/24 01:01:50;;;;;;;4.35;3.38;;;;;;;;;;5014758;28;20047;-79
2021/06/24 01:04:24;;;;;;;5.80;3.17;;;;;;;;;;5031802;28;20025;-79
2021/06/24 01:06:50;;;;;;;5.17;2.90;;;;;;;;;;5015925;28;20083;-79
2021/06/24 01:09:16;;;;;;;4.90;3.50;;;;;;;;;;5015307;28;20075;-78
2021/06/24 01:11:41;;;;;;;4.22;3.20;;;;;;;;;;5015580;28;20029;-79
2021/06/24 01:14:07;;;;;;;6.00;3.60;;;;;;;;;;5014861;28;20029;-78
2021/06/24 01:16:33;;;;;;;6.68;3.67;;;;;;;;;;4998490;28;20251;-78
2021/06/24 01:18:58;;;;;;;5.32;3.20;;;;;;;;;;4998589;28;20138;-78
2021/06/24 01:21:24;;;;;;;5.25;3.05;;;;;;;;;;4998557;28;20397;-79
2021/06/24 01:23:49;;;;;;;4.38;3.45;;;;;;;;;;4996984;28;20033;-79
2021/06/24 01:26:15;;;;;;;4.47;3.00;;;;;;;;;;4994805;28;20048;-79
2021/06/24 01:28:41;;;;;;;5.10;3.33;;;;;;;;;;5011359;28;20033;-79
2021/06/24 01:31:06;;;;;;;4.35;2.90;;;;;;;;;;5010980;28;20103;-79
2021/06/24 01:33:32;;;;;;;4.97;3.30;;;;;;;;;;5011203;28;20425;-79
2021/06/24 01:35:59;;;;;;;4.85;2.65;;;;;;;;;;5028212;28;20025;-79
2021/06/24 01:38:24;;;;;;;6.05;3.10;;;;;;;;;;5028144;28;20038;-79
2021/06/24 01:40:50;;;;;;;3.38;3.08;;;;;;;;;;5011299;28;20160;-79
2021/06/24 01:43:15;;;;;;;5.55;3.35;;;;;;;;;;5011133;28;20121;-79
2021/06/24 01:45:48;;;;;;;4.88;2.95;;;;;;;;;;5011087;28;20041;-78
2021/06/24 01:48:13;;;;;;;4.95;3.15;;;;;;;;;;5030783;28;20069;-79
2021/06/24 01:50:39;;;;;;;3.28;2.60;;;;;;;;;;5014335;28;20487;-79
2021/06/24 01:53:05;;;;;;;4.22;2.95;;;;;;;;;;5030611;28;20108;-79
2021/06/24 01:55:34;;;;;;;3.97;3.10;;;;;;;;;;4997750;28;20518;-79
2021/06/24 01:58:00;;;;;;;3.42;2.58;;;;;;;;;;4998561;28;20033;-78
2021/06/24 02:00:26;;;;;;;5.30;2.92;;;;;;;;;;4997360;28;20037;-79
2021/06/24 02:02:51;;;;;;;4.18;2.85;;;;;;;;;;5030420;28;20527;-79
2021/06/24 02:05:16;;;;;;;5.82;2.88;;;;;;;;;;5014102;28;20041;-79
2021/06/24 02:07:42;;;;;;;4.68;2.97;;;;;;;;;;4997904;28;20029;-79
2021/06/24 02:10:09;;;;;;;5.60;2.97;;;;;;;;;;5014729;28;20037;-79
2021/06/24 02:12:36;;;;;;;4.03;2.80;;;;;;;;;;5030748;28;20029;-79
2021/06/24 02:15:03;;;;;;;3.30;2.70;;;;;;;;;;5022578;28;20576;-79
2021/06/24 02:17:29;;;;;;;3.85;2.40;;;;;;;;;;5016045;28;20026;-79
2021/06/24 02:19:55;;;;;;;5.10;2.20;;;;;;;;;;5010660;28;20033;-79
2021/06/24 02:22:20;;;;;;;4.15;2.78;;;;;;;;;;5010687;28;20125;-79
2021/06/24 02:24:45;;;;;;;4.82;2.47;;;;;;;;;;5010260;28;20065;-79
2021/06/24 02:27:11;;;;;;;5.05;3.00;;;;;;;;;;5010173;28;20049;-78
2021/06/24 02:29:36;;;;;;;4.28;2.53;;;;;;;;;;5010798;28;20037;-79
2021/06/24 02:32:02;;;;;;;4.55;2.33;;;;;;;;;;5010387;28;20033;-78
2021/06/24 02:34:27;;;;;;;3.15;2.45;;;;;;;;;;5014127;28;20098;-79
2021/06/24 02:36:54;;;;;;;5.03;2.67;;;;;;;;;;4997799;28;20032;-79
2021/06/24 02:39:19;;;;;;;5.30;2.42;;;;;;;;;;4997918;28;20029;-79
2021/06/24 02:41:45;;;;;;;3.58;2.45;;;;;;;;;;4996951;28;20024;-79
2021/06/24 02:44:10;;;;;;;3.70;2.40;;;;;;;;;;5013743;28;20033;-79
2021/06/24 02:46:36;;;;;;;2.40;2.10;;;;;;;;;;5013962;28;20029;-79
2021/06/24 02:49:01;;;;;;;4.60;2.72;;;;;;;;;;5013360;28;20030;-79
2021/06/24 02:51:27;;;;;;;3.35;2.53;;;;;;;;;;4994078;28;20030;-79
2021/06/24 02:53:52;;;;;;;3.28;2.20;;;;;;;;;;4994079;28;20088;-79
2021/06/24 02:56:21;;;;;;;3.33;2.25;;;;;;;;;;4993699;28;20034;-79
2021/06/24 02:58:47;;;;;;;3.72;2.40;;;;;;;;;;5009931;28;20096;-79
2021/06/24 03:01:12;;;;;;;5.28;2.50;;;;;;;;;;5012759;28;20414;-78
2021/06/24 03:03:38;;;;;;;4.32;2.47;;;;;;;;;;4998181;28;20029;-79
2021/06/24 03:06:03;;;;;;;4.03;3.00;;;;;;;;;;5001296;28;20026;-79
2021/06/24 03:08:29;;;;;;;5.10;2.22;;;;;;;;;;5017382;28;20033;-78
2021/06/24 03:10:55;;;;;;;4.55;2.30;;;;;;;;;;4999592;28;20499;-78
2021/06/24 03:13:22;;;;;;;4.15;2.28;;;;;;;;;;5013961;28;20048;-79
2021/06/24 03:15:47;;;;;;;3.83;2.42;;;;;;;;;;4981435;28;20029;-79
2021/06/24 03:18:13;;;;;;;3.63;2.25;;;;;;;;;;5001801;28;20035;-79
2021/06/24 03:20:38;;;;;;;4.55;2.30;;;;;;;;;;5016866;28;20079;-79
2021/06/24 03:23:04;;;;;;;3.88;2.60;;;;;;;;;;5033740;28;20029;-79
2021/06/24 03:25:29;;;;;;;5.63;2.58;;;;;;;;;;5016572;28;20026;-79
2021/06/24 03:27:55;;;;;;;3.55;2.25;;;;;;;;;;5017322;28;20098;-79
2021/06/24 03:30:21;;;;;;;3.33;2.47;;;;;;;;;;5000551;28;20044;-79
2021/06/24 03:32:46;;;;;;;4.93;2.40;;;;;;;;;;5013535;28;20062;-79
2021/06/24 03:35:14;;;;;;;3.38;2.20;;;;;;;;;;5014029;28;20488;-80
2021/06/24 03:37:39;;;;;;;4.35;2.28;;;;;;;;;;5015248;28;20038;-79
2021/06/24 03:40:06;;;;;;;2.90;2.03;;;;;;;;;;5031544;28;20029;-78
2021/06/24 03:42:31;;;;;;;2.83;1.98;;;;;;;;;;5022305;28;20040;-77
2021/06/24 03:44:57;;;;;;;7.68;2.58;;;;;;;;;;5000495;28;20025;-77
2021/06/24 03:47:22;;;;;;;3.83;2.35;;;;;;;;;;5000135;28;20075;-77
2021/06/24 03:49:48;;;;;;;3.38;1.90;;;;;;;;;;5000511;28;20033;-77
2021/06/24 03:52:13;;;;;;;3.85;2.15;;;;;;;;;;5016911;28;20034;-77
2021/06/24 03:54:39;;;;;;;4.30;2.28;;;;;;;;;;5015671;28;20046;-77
2021/06/24 03:57:05;;;;;;;2.75;1.65;;;;;;;;;;5016370;28;20045;-77
2021/06/24 03:59:30;;;;;;;4.22;2.13;;;;;;;;;;5000035;28;20029;-77
2021/06/24 04:01:56;;;;;;;4.43;1.90;;;;;;;;;;5016003;28;20064;-77
2021/06/24 04:04:21;;;;;;;4.95;2.25;;;;;;;;;;5016162;28;20052;-77
2021/06/24 04:06:47;;;;;;;4.22;2.05;;;;;;;;;;5014664;28;20049;-78
2021/06/24 04:09:12;;;;;;;2.95;1.90;;;;;;;;;;5016560;28;20037;-77
2021/06/24 04:11:38;;;;;;;4.00;2.45;;;;;;;;;;4999927;28;20037;-78
2021/06/24 04:14:03;;;;;;;2.70;2.10;;;;;;;;;;5015981;28;20031;-77
2021/06/24 04:16:29;;;;;;;3.33;2.30;;;;;;;;;;5000287;28;20038;-78
2021/06/24 04:18:58;;;;;;;4.20;2.38;;;;;;;;;;5000106;28;20391;-78
2021/06/24 04:21:23;;;;;;;4.07;2.00;;;;;;;;;;5015803;28;20037;-77
2021/06/24 04:23:49;;;;;;;3.72;2.00;;;;;;;;;;5032228;28;20044;-78
2021/06/24 04:26:14;;;;;;;3.65;2.20;;;;;;;;;;5015936;28;20038;-77
2021/06/24 04:28:40;;;;;;;4.07;2.13;;;;;;;;;;5032315;28;20119;-78
2021/06/24 04:31:06;;;;;;;3.28;2.22;;;;;;;;;;4999234;28;20029;-78
2021/06/24 04:33:33;;;;;;;2.92;2.00;;;;;;;;;;5015911;28;20026;-78
2021/06/24 04:35:59;;;;;;;3.40;2.20;;;;;;;;;;4999590;28;20154;-78
2021/06/24 04:38:24;;;;;;;4.63;2.28;;;;;;;;;;4983174;28;20037;-78
2021/06/24 04:40:50;;;;;;;3.10;2.00;;;;;;;;;;4983119;28;20167;-78
2021/06/24 04:43:15;;;;;;;4.38;2.30;;;;;;;;;;5015396;28;20041;-78
2021/06/24 04:45:42;;;;;;;4.30;2.40;;;;;;;;;;5015831;28;20109;-78
2021/06/24 04:48:07;;;;;;;3.88;2.20;;;;;;;;;;5015879;28;20060;-78
2021/06/24 04:50:33;;;;;;;4.32;1.90;;;;;;;;;;4998984;28;20060;-77
2021/06/24 04:52:58;;;;;;;5.47;2.08;;;;;;;;;;5031588;28;20076;-78
2021/06/24 04:55:24;;;;;;;3.42;1.90;;;;;;;;;;4998889;28;20458;-78
2021/06/24 04:57:50;;;;;;;7.13;2.22;;;;;;;;;;5014988;28;20099;-78
2021/06/24 05:00:15;;;;;;;4.28;2.50;;;;;;;;;;5023490;28;20068;-78
2021/06/24 05:02:41;;;;;;;3.70;2.08;;;;;;;;;;4995876;28;20104;-78
2021/06/24 05:05:08;;;;;;;5.13;2.40;;;;;;;;;;5027699;28;20045;-78
2021/06/24 05:07:37;;;;;;;3.83;2.20;;;;;;;;;;4998457;28;20108;-77
2021/06/24 05:10:04;;;;;;;3.78;2.00;;;;;;;;;;5015410;28;20108;-78
2021/06/24 05:12:29;;;;;;;4.07;2.05;;;;;;;;;;4982842;28;20356;-78
2021/06/24 05:14:55;;;;;;;3.17;1.90;;;;;;;;;;5015033;28;20108;-78
2021/06/24 05:17:20;;;;;;;2.72;1.70;;;;;;;;;;4997134;28;20056;-77
2021/06/24 05:19:46;;;;;;;4.20;2.15;;;;;;;;;;4996075;28;20092;-78
2021/06/24 05:22:11;;;;;;;3.90;2.22;;;;;;;;;;5003332;28;20112;-77
2021/06/24 05:24:39;;;;;;;4.25;2.17;;;;;;;;;;5014424;28;20450;-78
2021/06/24 05:27:04;;;;;;;3.80;2.00;;;;;;;;;;4981339;28;20116;-78
2021/06/24 05:29:30;;;;;;;3.95;1.80;;;;;;;;;;4998146;28;20112;-80
2021/06/24 05:31:55;;;;;;;3.55;1.90;;;;;;;;;;4989862;28;20137;-81
2021/06/24 05:34:21;;;;;;;2.60;2.00;;;;;;;;;;5006299;28;20034;-82
2021/06/24 05:36:47;;;;;;;6.53;2.00;;;;;;;;;;4997236;28;20099;-81
2021/06/24 05:39:15;;;;;;;4.35;2.10;;;;;;;;;;4999025;28;20487;-81
2021/06/24 05:41:41;;;;;;;7.72;2.50;;;;;;;;;;4998179;28;20036;-81
2021/06/24 05:44:06;;;;;;;7.82;2.88;;;;;;;;;;5001772;28;20038;-81
2021/06/24 05:46:32;;;;;;;5.82;2.78;;;;;;;;;;4995010;28;20087;-82
2021/06/24 05:48:57;;;;;;;5.13;2.30;;;;;;;;;;5008344;28;20033;-81
2021/06/24 05:51:23;;;;;;;4.43;1.85;;;;;;;;;;4997801;28;20033;-81
2021/06/24 05:53:52;;;;;;;4.53;1.67;;;;;;;;;;4997698;28;20036;-81
2021/06/24 05:56:18;;;;;;;6.18;2.47;;;;;;;;;;5014904;28;20376;-81
2021/06/24 05:58:43;;;;;;;3.95;2.53;;;;;;;;;;5014236;28;20432;-82
2021/06/24 06:01:09;;;;;;;11.63;2.53;;;;;;;;;;4997825;28;20061;-82
2021/06/24 06:03:34;;;;;;;4.22;2.08;;;;;;;;;;4998019;28;20083;-82
2021/06/24 06:06:00;;;;;;;4.72;2.28;;;;;;;;;;4997859;28;20045;-79
2021/06/24 06:08:27;;;;;;;3.08;2.10;;;;;;;;;;4998236;28;20029;-78
2021/06/24 06:10:53;;;;;;;6.30;2.20;;;;;;;;;;5012674;28;20072;-78
2021/06/24 06:13:18;;;;;;;7.65;2.00;;;;;;;;;;5011677;28;20387;-78
2021/06/24 06:15:48;;;;;;;4.88;2.22;;;;;;;;;;4995239;28;20042;-78
2021/06/24 06:18:14;;;;;;;4.07;2.10;;;;;;;;;;4989365;28;20029;-78
2021/06/24 06:20:40;;;;;;;9.15;2.35;;;;;;;;;;5011545;28;20200;-78
2021/06/24 06:23:06;;;;;;;5.18;2.22;;;;;;;;;;5013662;28;20466;-78
2021/06/24 06:25:31;;;;;;;7.22;2.70;;;;;;;;;;5013472;28;20529;-78
2021/06/24 06:27:57;;;;;;;6.38;3.30;;;;;;;;;;5030299;28;20037;-78
2021/06/24 06:30:25;;;;;;;8.50;2.00;;;;;;;;;;4996586;28;20379;-78
2021/06/24 06:32:51;;;;;;;6.65;2.30;;;;;;;;;;5013512;28;20080;-78
2021/06/24 06:35:16;;;;;;;6.95;2.58;;;;;;;;;;4997187;28;20037;-78
2021/06/24 06:37:42;;;;;;;8.65;2.67;;;;;;;;;;4998403;28;20029;-78
2021/06/24 06:40:08;;;;;;;15.18;2.60;;;;;;;;;;5017912;28;20108;-78
2021/06/24 06:42:33;;;;;;;7.05;2.63;;;;;;;;;;5017628;28;20438;-78
2021/06/24 06:44:59;;;;;;;6.13;3.15;;;;;;;;;;5017561;28;20041;-78
2021/06/24 06:47:24;;;;;;;5.28;2.95;;;;;;;;;;5017368;28;20073;-78
2021/06/24 06:49:50;;;;;;;5.18;2.80;;;;;;;;;;5033609;28;20030;-78
2021/06/24 06:52:15;;;;;;;6.80;3.10;;;;;;;;;;5017496;28;20079;-78
2021/06/24 06:54:41;;;;;;;4.57;3.03;;;;;;;;;;5033804;28;20041;-78
2021/06/24 06:57:06;;;;;;;4.85;3.47;;;;;;;;;;5034274;28;20030;-78
2021/06/24 06:59:34;;;;;;;5.47;3.83;;;;;;;;;;5000889;28;20479;-79
2021/06/24 07:02:00;;;;;;;5.55;3.58;;;;;;;;;;5017501;28;20076;-78
2021/06/24 07:04:26;;;;;;;7.28;3.35;;;;;;;;;;5033062;28;20048;-78
2021/06/24 07:06:51;;;;;;;5.22;3.30;;;;;;;;;;5017235;28;20069;-78
2021/06/24 07:09:18;;;;;;;5.90;3.80;;;;;;;;;;5017739;28;20033;-78
2021/06/24 07:11:43;;;;;;;6.55;3.97;;;;;;;;;;5013525;28;20038;-78
2021/06/24 07:14:09;;;;;;;5.75;3.95;;;;;;;;;;5014046;28;20087;-78
2021/06/24 07:16:34;;;;;;;5.80;3.92;;;;;;;;;;5030225;28;20108;-78
2021/06/24 07:19:00;;;;;;;6.10;4.10;;;;;;;;;;5033256;28;20035;-78
2021/06/24 07:21:25;;;;;;;5.13;4.05;;;;;;;;;;5013972;28;20422;-78
2021/06/24 07:23:51;;;;;;;6.15;4.22;;;;;;;;;;5001360;28;20056;-79
2021/06/24 07:26:16;;;;;;;5.90;3.50;;;;;;;;;;5005873;28;20042;-79
2021/06/24 07:28:42;;;;;;;8.55;6.72;;;;;;;;;;5016510;28;20052;-79
2021/06/24 07:31:08;;;;;;;13.10;10.10;;;;;;;;;;5033201;28;20112;-79
2021/06/24 07:33:34;;;;;;;16.77;12.63;;;;;;;;;;5016350;28;20037;-79
2021/06/24 07:36:00;;;;;;;14.15;12.65;;;;;;;;;;4984598;28;20487;-79
2021/06/24 07:38:26;;;;;;;14.77;12.68;;;;;;;;;;5000171;28;20079;-78
2021/06/24 07:40:51;;;;;;;14.70;13.10;;;;;;;;;;5016630;28;20128;-79
2021/06/24 07:43:17;;;;;;;15.75;12.63;;;;;;;;;;5016771;28;20087;-78
2021/06/24 07:45:42;;;;;;;14.95;13.35;;;;;;;;;;5016312;28;20395;-79
2021/06/24 07:48:08;;;;;;;19.05;15.50;;;;;;;;;;4983875;28;20107;-78
2021/06/24 07:50:34;;;;;;;17.98;16.00;;;;;;;;;;4999300;28;20522;-78
2021/06/24 07:53:00;;;;;;;16.88;15.27;;;;;;;;;;5016582;28;20479;-79
2021/06/24 07:55:33;;;;;;;19.63;17.42;;;;;;;;;;5000199;28;20109;-78
2021/06/24 07:57:59;;;;;;;17.00;15.30;;;;;;;;;;5017353;28;20037;-78
2021/06/24 08:00:25;;;;;;;19.73;17.40;;;;;;;;;;5015760;28;20026;-78
2021/06/24 08:02:51;;;;;;;20.73;17.30;;;;;;;;;;4999207;28;20081;-78
2021/06/24 08:05:16;;;;;;;20.25;17.60;;;;;;;;;;5016105;28;20037;-78
2021/06/24 08:07:45;;;;;;;18.15;15.35;;;;;;;;;;5000248;28;20079;-79
2021/06/24 08:10:11;;;;;;;23.02;19.42;;;;;;;;;;4981135;28;20029;-81
2021/06/24 08:12:36;;;;;;;20.75;18.48;;;;;;;;;;4997195;28;20046;-82
2021/06/24 08:15:02;;;;;;;24.52;21.90;;;;;;;;;;5012674;28;20040;-78
2021/06/24 08:17:28;;;;;;;25.50;21.63;;;;;;;;;;5015745;28;20033;-79
2021/06/24 08:19:53;;;;;;;25.50;22.83;;;;;;;;;;5016052;28;20109;-79
2021/06/24 08:22:19;;;;;;;24.92;22.50;;;;;;;;;;4999854;28;20029;-80
2021/06/24 08:24:44;;;;;;;26.40;22.55;;;;;;;;;;4999037;28;20040;-81
2021/06/24 08:27:10;;;;;;;28.05;23.20;;;;;;;;;;4999648;28;20037;-81
2021/06/24 08:29:35;;;;;;;30.13;23.35;;;;;;;;;;4999369;28;20031;-81
2021/06/24 08:32:01;;;;;;;26.50;22.05;;;;;;;;;;5015638;28;20038;-82
2021/06/24 08:34:27;;;;;;;26.10;22.92;;;;;;;;;;5013528;28;20114;-80
2021/06/24 08:36:53;;;;;;;29.25;23.27;;;;;;;;;;5004858;28;20088;-80
2021/06/24 08:39:18;;;;;;;30.88;24.40;;;;;;;;;;5012362;28;20041;-79
2021/06/24 08:41:51;;;;;;;25.92;23.33;;;;;;;;;;4979836;28;20492;-80
2021/06/24 08:44:20;;;;;;;28.63;23.70;;;;;;;;;;4999885;28;20034;-79
2021/06/24 08:46:46;;;;;;;25.45;22.80;;;;;;;;;;5014620;28;20120;-79
2021/06/24 08:49:12;;;;;;;34.45;24.40;;;;;;;;;;5015774;28;20384;-80
2021/06/24 08:51:37;;;;;;;26.92;23.15;;;;;;;;;;5015626;28;20064;-79
2021/06/24 08:54:03;;;;;;;27.65;24.88;;;;;;;;;;4998851;28;20041;-80
2021/06/24 08:56:28;;;;;;;28.02;24.52;;;;;;;;;;4994156;28;20038;-79
2021/06/24 08:58:56;;;;;;;28.83;24.75;;;;;;;;;;5008068;28;20035;-80
2021/06/24 09:01:49;;;;;;;28.95;24.63;;;;;;;;;;4998496;28;20190;-80
2021/06/24 09:04:15;;;;;;;30.00;24.65;;;;;;;;;;5016799;28;20044;-80
2021/06/24 09:06:41;;;;;;;32.95;26.05;;;;;;;;;;4998859;28;20038;-80
2021/06/24 09:09:06;;;;;;;30.40;27.15;;;;;;;;;;4998558;28;20033;-80
2021/06/24 09:11:32;;;;;;;29.80;26.60;;;;;;;;;;5014405;28;20030;-80
2021/06/24 09:14:05;;;;;;;34.97;28.33;;;;;;;;;;4997699;28;20029;-80
2021/06/24 09:16:40;;;;;;;31.27;27.13;;;;;;;;;;4998265;28;20037;-78
2021/06/24 09:19:23;;;;;;;29.77;25.63;;;;;;;;;;5015259;28;20060;-78
2021/06/24 09:21:58;;;;;;;;;;;;;;;;;;4998791;28;20030;-78
2021/06/24 09:24:33;;;;;;;36.35;31.02;;;;;;;;;;5030928;28;19967;-79
2021/06/24 09:27:00;;;;;;;36.38;32.45;;;;;;;;;;5031308;28;20103;-78
2021/06/24 09:29:26;;;;;;;40.03;32.13;;;;;;;;;;5013632;28;20068;-78
2021/06/24 09:31:53;;;;;;;34.22;30.02;;;;;;;;;;5014773;28;20037;-78
2021/06/24 09:34:19;;;;;;;33.60;29.17;;;;;;;;;;5006654;28;20033;-78
2021/06/24 09:36:48;;;;;;;37.08;30.05;;;;;;;;;;5006985;28;20109;-78
2021/06/24 09:39:24;;;;;;;37.15;29.90;;;;;;;;;;5030624;28;20029;-78
2021/06/24 09:42:10;;;;;;;34.72;30.85;;;;;;;;;;5030973;28;20033;-78
2021/06/24 09:44:37;;;;;;;36.45;28.85;;;;;;;;;;5014143;28;20026;-78
2021/06/24 09:47:14;;;;;;;29.92;26.67;;;;;;;;;;5014507;28;20032;-78
2021/06/24 09:49:39;;;;;;;30.02;25.95;;;;;;;;;;5014783;28;20037;-78
2021/06/24 09:52:05;;;;;;;32.88;28.90;;;;;;;;;;5013883;28;20476;-78
2021/06/24 09:54:32;;;;;;;33.90;28.77;;;;;;;;;;5013813;28;20047;-78
2021/06/24 09:56:58;;;;;;;35.28;30.33;;;;;;;;;;5013840;28;20701;-78
2021/06/24 09:59:34;;;;;;;34.05;28.95;;;;;;;;;;4981489;28;20120;-78
2021/06/24 10:02:06;;;;;;;35.45;29.98;;;;;;;;;;5013214;28;20029;-78
2021/06/24 10:04:32;;;;;;;39.13;30.13;;;;;;;;;;5025574;28;20037;-78
2021/06/24 10:06:59;;;;;;;31.85;28.38;;;;;;;;;;5013944;28;20128;-78
2021/06/24 10:09:25;;;;;;;29.40;26.25;;;;;;;;;;4996891;28;20041;-77
2021/06/24 10:11:50;;;;;;;31.35;25.70;;;;;;;;;;5007993;28;20029;-77
2021/06/24 10:14:16;;;;;;;33.40;25.67;;;;;;;;;;4997250;28;20041;-77
2021/06/24 10:16:52;;;;;;;32.05;24.75;;;;;;;;;;5014295;28;20052;-77
2021/06/24 10:19:18;;;;;;;29.45;25.55;;;;;;;;;;5030332;28;20041;-77
2021/06/24 10:21:43;;;;;;;31.60;25.83;;;;;;;;;;4998221;28;20622;-77
2021/06/24 10:24:11;;;;;;;29.38;26.15;;;;;;;;;;5013913;28;20041;-77
2021/06/24 10:26:42;;;;;;;30.55;24.98;;;;;;;;;;5013739;28;20041;-77
2021/06/24 10:29:19;;;;;;;35.70;28.02;;;;;;;;;;5014348;28;20484;-77
2021/06/24 10:31:52;;;;;;;30.35;26.52;;;;;;;;;;5046866;28;20087;-77
2021/06/24 10:34:18;;;;;;;29.42;26.08;;;;;;;;;;5012099;28;20423;-77
2021/06/24 10:37:12;;;;;;;30.75;25.38;;;;;;;;;;4997117;28;20026;-77
2021/06/24 10:39:39;;;;;;;45.42;23.75;;;;;;;;;;5029451;28;20044;-78
2021/06/24 10:42:06;;;;;;;27.85;24.85;;;;;;;;;;5011061;28;20045;-77
2021/06/24 10:44:40;;;;;;;28.63;25.20;;;;;;;;;;5030438;28;20029;-77
2021/06/24 10:47:06;;;;;;;29.52;25.42;;;;;;;;;;5023841;28;20104;-77
2021/06/24 10:49:31;;;;;;;25.05;22.50;;;;;;;;;;5011812;28;20444;-77
2021/06/24 10:52:25;;;;;;;23.00;20.50;;;;;;;;;;5038574;28;20037;-77
2021/06/24 10:54:51;;;;;;;31.48;24.13;;;;;;;;;;5027188;28;20049;-77
2021/06/24 10:57:36;;;;;;;28.83;20.77;;;;;;;;;;4996998;28;20072;-77
2021/06/24 11:00:36;;;;;;;29.35;26.20;;;;;;;;;;5010462;28;20068;-77
2021/06/24 11:03:03;;;;;;;29.98;26.88;;;;;;;;;;5011575;28;20044;-77
2021/06/24 11:05:39;;;;;;;31.90;28.50;;;;;;;;;;5008137;28;20041;-77
2021/06/24 11:08:19;;;;;;;33.55;28.58;;;;;;;;;;5010056;28;20038;-77
2021/06/24 11:11:30;;;;;;;35.72;29.77;;;;;;;;;;5010254;28;20108;-77
2021/06/24 11:13:55;;;;;;;33.97;28.73;;;;;;;;;;5017376;28;20083;-77
2021/06/24 11:16:21;;;;;;;32.03;27.95;;;;;;;;;;5028157;28;20037;-77
2021/06/24 11:18:54;;;;;;;36.22;30.90;;;;;;;;;;5033067;28;20045;-77
2021/06/24 11:21:28;;;;;;;33.03;29.48;;;;;;;;;;5030081;28;20051;-77
2021/06/24 11:24:21;;;;;;;32.67;29.23;;;;;;;;;;5029596;28;20072;-77
2021/06/24 11:26:48;;;;;;;32.95;28.55;;;;;;;;;;5019088;28;20049;-77
2021/06/24 11:31:59;;;;;;;33.22;29.60;;;;;;;;;;5030246;28;20052;-77
2021/06/24 11:37:05;;;;;;;34.65;30.67;;;;;;;;;;5033296;28;20787;-77
2021/06/24 11:39:35;;;;;;;33.15;29.52;;;;;;;;;;5017027;28;20033;-77
2021/06/24 11:42:05;;;;;;;31.33;27.75;;;;;;;;;;5017507;28;20040;-77
2021/06/24 11:44:32;;;;;;;32.92;29.38;;;;;;;;;;5017207;28;20101;-77
2021/06/24 11:46:59;;;;;;;34.97;29.73;;;;;;;;;;4996967;28;20116;-77
2021/06/24 12:05:38;;;;;;;34.35;30.88;;;;;;;;;;5019675;28;20042;-77
2021/06/24 12:08:04;;;;;;;35.88;32.03;;;;;;;;;;4999987;28;20049;-77
2021/06/24 12:10:30;;;;;;;31.92;26.02;;;;;;;;;;5016104;28;20039;-77
2021/06/24 12:12:55;;;;;;;32.80;27.60;;;;;;;;;;5016202;28;20026;-77
2021/06/24 12:15:20;;;;;;;36.42;30.08;;;;;;;;;;5015401;28;20369;-77
2021/06/24 12:17:46;;;;;;;32.35;28.83;;;;;;;;;;4999879;28;20516;-77
2021/06/24 12:20:23;;;;;;;39.17;32.47;;;;;;;;;;5015764;28;20052;-77
2021/06/24 12:22:51;;;;;;;37.50;31.02;;;;;;;;;;5032008;28;20044;-77
2021/06/24 12:25:25;;;;;;;37.92;33.00;;;;;;;;;;5015821;28;20589;-77
2021/06/24 12:27:55;;;;;;;38.35;31.00;;;;;;;;;;4999852;28;20064;-77
2021/06/24 12:30:41;;;;;;;33.42;30.02;;;;;;;;;;5015869;28;20109;-77
2021/06/24 12:33:11;;;;;;;30.75;27.20;;;;;;;;;;5032280;28;20030;-77
2021/06/24 12:35:45;;;;;;;30.10;26.85;;;;;;;;;;4999227;28;20040;-77
2021/06/24 12:38:19;;;;;;;27.95;24.95;;;;;;;;;;4999283;28;20037;-77
2021/06/24 12:40:47;;;;;;;26.77;23.98;;;;;;;;;;4983423;28;20479;-77
2021/06/24 12:43:20;;;;;;;28.30;23.83;;;;;;;;;;5032031;28;20029;-77
2021/06/24 12:45:48;;;;;;;25.35;21.67;;;;;;;;;;4998640;28;20040;-76
2021/06/24 12:48:43;;;;;;;23.90;21.52;;;;;;;;;;5012015;28;20030;-77
2021/06/24 12:51:15;;;;;;;23.50;21.05;;;;;;;;;;5011751;28;20041;-77
2021/06/24 12:53:41;;;;;;;23.20;20.90;;;;;;;;;;5031513;28;20048;-77
2021/06/24 12:56:30;;;;;;;22.58;20.42;;;;;;;;;;4999254;28;20059;-77
2021/06/24 12:59:22;;;;;;;21.77;19.58;;;;;;;;;;5015531;28;20041;-77
2021/06/24 13:01:49;;;;;;;21.02;18.90;;;;;;;;;;5016344;28;20060;-77
2021/06/24 13:04:29;;;;;;;20.10;18.10;;;;;;;;;;5013508;28;20120;-77
2021/06/24 13:06:55;;;;;;;19.92;17.83;;;;;;;;;;4995664;28;20025;-77
2021/06/24 13:09:33;;;;;;;18.50;16.50;;;;;;;;;;5016953;28;20392;-77
2021/06/24 13:12:00;;;;;;;19.58;17.10;;;;;;;;;;5030864;28;20407;-77
2021/06/24 13:14:36;;;;;;;17.42;15.73;;;;;;;;;;4998532;28;20557;-77
2021/06/24 13:17:02;;;;;;;19.00;17.10;;;;;;;;;;5031529;28;20025;-77
2021/06/24 13:19:41;;;;;;;18.90;16.83;;;;;;;;;;5031570;28;20094;-77
2021/06/24 13:22:06;;;;;;;17.13;15.35;;;;;;;;;;5001196;28;20372;-77
2021/06/24 13:24:39;;;;;;;16.23;14.52;;;;;;;;;;5032555;28;20152;-77
2021/06/24 13:27:08;;;;;;;16.17;13.75;;;;;;;;;;4998119;28;20041;-77
2021/06/24 13:29:34;;;;;;;16.60;14.32;;;;;;;;;;5014713;28;20036;-77
2021/06/24 13:32:00;;;;;;;15.90;14.30;;;;;;;;;;5011473;28;20030;-77
2021/06/24 13:34:28;;;;;;;14.80;13.40;;;;;;;;;;5011070;28;20092;-77
2021/06/24 13:36:54;;;;;;;13.95;12.55;;;;;;;;;;5027373;28;20037;-77
2021/06/24 13:39:31;;;;;;;14.50;13.20;;;;;;;;;;5011748;28;20034;-77
2021/06/24 13:41:57;;;;;;;15.88;13.10;;;;;;;;;;4995226;28;20045;-77
2021/06/24 13:44:23;;;;;;;14.00;12.35;;;;;;;;;;5016762;28;20380;-77
2021/06/24 13:46:50;;;;;;;14.07;12.70;;;;;;;;;;4997946;28;20087;-77
2021/06/24 13:49:17;;;;;;;14.05;12.23;;;;;;;;;;5013989;28;20036;-77
2021/06/24 13:51:46;;;;;;;16.23;12.80;;;;;;;;;;5027663;28;20116;-77
2021/06/24 13:54:13;;;;;;;12.48;11.32;;;;;;;;;;5011103;28;20046;-77
2021/06/24 13:56:38;;;;;;;13.13;11.57;;;;;;;;;;5011688;28;20434;-77
2021/06/24 13:59:04;;;;;;;11.98;10.88;;;;;;;;;;5011143;28;20038;-77
2021/06/24 14:01:30;;;;;;;11.68;10.50;;;;;;;;;;5010611;28;20022;-77
2021/06/24 14:03:56;;;;;;;13.43;10.93;;;;;;;;;;4999848;28;20021;-77
2021/06/24 14:06:23;;;;;;;10.80;9.70;;;;;;;;;;4997510;28;20048;-77
2021/06/24 14:08:48;;;;;;;13.52;9.73;;;;;;;;;;5030998;28;20120;-77
2021/06/24 14:11:15;;;;;;;10.80;9.13;;;;;;;;;;4997728;28;20587;-77
2021/06/24 14:13:44;;;;;;;12.40;9.07;;;;;;;;;;4998315;28;20480;-77
2021/06/24 14:16:12;;;;;;;11.82;10.07;;;;;;;;;;4997045;28;20502;-77
2021/06/24 14:18:40;;;;;;;13.15;10.10;;;;;;;;;;5014042;28;20050;-77
2021/06/24 14:21:06;;;;;;;11.68;9.30;;;;;;;;;;5013666;28;20459;-77
2021/06/24 14:23:33;;;;;;;11.88;9.70;;;;;;;;;;5014174;28;20048;-77
2021/06/24 14:25:58;;;;;;;11.32;9.38;;;;;;;;;;4997578;28;20385;-77
2021/06/24 14:28:24;;;;;;;14.20;10.80;;;;;;;;;;4997777;28;20037;-77
2021/06/24 14:30:50;;;;;;;11.32;10.02;;;;;;;;;;4997539;28;20037;-77
2021/06/24 14:33:15;;;;;;;10.32;8.75;;;;;;;;;;4979823;28;20042;-77
2021/06/24 14:35:42;;;;;;;11.50;8.85;;;;;;;;;;4994144;28;20037;-77
2021/06/24 14:38:07;;;;;;;11.05;9.68;;;;;;;;;;5010610;28;20029;-77
2021/06/24 14:40:33;;;;;;;10.73;9.23;;;;;;;;;;4994679;28;20026;-77
2021/06/24 14:42:59;;;;;;;9.63;8.68;;;;;;;;;;5010987;28;20072;-77
2021/06/24 14:45:24;;;;;;;11.13;8.60;;;;;;;;;;5010264;28;20038;-77
2021/06/24 14:47:50;;;;;;;9.88;8.50;;;;;;;;;;5010442;28;20040;-77
2021/06/24 14:50:15;;;;;;;8.88;7.97;;;;;;;;;;5026194;28;20029;-75
2021/06/24 14:52:41;;;;;;;10.38;8.00;;;;;;;;;;5014165;28;20048;-74
2021/06/24 14:55:06;;;;;;;9.35;8.45;;;;;;;;;;5030261;28;20068;-74